Time;durP1;ratioP1;P1;durP2;ratioP2;P2;SDS_P1;SDS_P2;PMS_P1;PMS_P2;Temp;Humidity;BMP_temperature;BMP_pressure;BME280_temperature;BME280_humidity;BME280_pressure;Samples;Min_cycle;Max_cycle;Signal;HPM_P1;HPM_P2
2023/06/06 00:00:14;;;;;;;5.10;2.78;;;;;;;16.03;100.00;100984.31;697385;28;1304;-58
2023/06/06 00:00:35;;;;;;;4.68;2.60;;;;;;;16.03;100.00;100976.41;694492;28;1455;-57
2023/06/06 00:00:59;;;;;;;4.90;2.60;;;;;;;16.00;100.00;100985.25;697464;28;1464;-58
2023/06/06 00:01:19;;;;;;;5.78;2.63;;;;;;;15.99;100.00;100973.84;699962;28;4450;-57
2023/06/06 00:01:40;;;;;;;4.45;2.33;;;;;;;16.00;100.00;100979.97;698780;28;1557;-58
2023/06/06 00:02:01;;;;;;;5.00;2.58;;;;;;;15.99;100.00;100984.38;699312;28;1161;-58
2023/06/06 00:02:21;;;;;;;4.80;2.80;;;;;;;15.99;100.00;100981.75;701244;28;1255;-58
2023/06/06 00:02:44;;;;;;;4.93;2.70;;;;;;;15.98;100.00;100979.16;698487;28;1616;-57
2023/06/06 00:03:04;;;;;;;4.75;2.83;;;;;;;15.94;100.00;100973.06;698685;28;998;-57
2023/06/06 00:03:25;;;;;;;5.27;2.87;;;;;;;15.93;100.00;100973.97;701365;28;900;-58
2023/06/06 00:03:45;;;;;;;4.93;2.77;;;;;;;15.93;100.00;100973.97;698201;28;1524;-57
2023/06/06 00:04:06;;;;;;;4.32;2.58;;;;;;;15.92;100.00;100980.16;698794;28;5338;-57
2023/06/06 00:04:27;;;;;;;5.03;2.78;;;;;;;15.92;100.00;100979.28;699109;28;999;-58
2023/06/06 00:04:49;;;;;;;5.75;3.10;;;;;;;15.91;100.00;100975.78;700062;28;1110;-58
2023/06/06 00:05:13;;;;;;;4.05;2.45;;;;;;;15.93;100.00;100976.59;702926;28;932;-58
2023/06/06 00:05:37;;;;;;;4.07;2.55;;;;;;;15.92;100.00;100977.53;699936;28;1917;-58
2023/06/06 00:05:59;;;;;;;4.72;2.60;;;;;;;15.91;100.00;100983.69;701042;28;986;-57
2023/06/06 00:06:20;;;;;;;5.45;2.70;;;;;;;15.90;100.00;100978.44;701622;28;943;-58
2023/06/06 00:06:44;;;;;;;5.30;2.40;;;;;;;15.88;100.00;100978.50;698140;28;1444;-58
2023/06/06 00:07:08;;;;;;;4.78;2.50;;;;;;;15.96;100.00;100983.56;698665;28;4579;-56
2023/06/06 00:07:28;;;;;;;4.18;2.50;;;;;;;15.86;100.00;100977.66;698696;28;1463;-57
2023/06/06 00:07:49;;;;;;;5.70;3.00;;;;;;;15.91;100.00;100975.78;700552;28;906;-57
2023/06/06 00:08:09;;;;;;;4.72;2.60;;;;;;;15.89;100.00;100980.19;699224;28;999;-58
2023/06/06 00:08:29;;;;;;;4.13;2.50;;;;;;;15.89;100.00;100977.56;698410;28;1459;-57
2023/06/06 00:08:52;;;;;;;4.00;2.50;;;;;;;15.89;100.00;100974.06;701059;28;1174;-58
2023/06/06 00:09:13;;;;;;;4.35;2.55;;;;;;;15.87;100.00;100981.13;700418;28;1117;-58
2023/06/06 00:09:34;;;;;;;4.82;2.60;;;;;;;15.86;100.00;100975.00;698922;28;1010;-58
2023/06/06 00:09:54;;;;;;;5.80;2.63;;;;;;;15.84;100.00;100979.47;701143;28;881;-58
2023/06/06 00:10:15;;;;;;;5.47;2.40;;;;;;;15.82;100.00;100975.97;699695;28;4308;-58
2023/06/06 00:10:36;;;;;;;5.20;2.58;;;;;;;15.79;100.00;100976.00;697189;28;1589;-58
2023/06/06 00:10:56;;;;;;;5.00;2.53;;;;;;;15.79;100.00;100979.53;700832;28;1351;-57
2023/06/06 00:11:17;;;;;;;4.28;2.33;;;;;;;15.85;100.00;100978.53;700075;28;979;-58
2023/06/06 00:11:40;;;;;;;4.63;2.70;;;;;;;15.86;100.00;100977.66;697684;28;1492;-59
2023/06/06 00:12:04;;;;;;;4.47;2.53;;;;;;;15.83;100.00;100983.00;699478;28;976;-59
2023/06/06 00:12:25;;;;;;;4.97;2.50;;;;;;;15.88;100.00;100975.84;700857;28;1209;-58
2023/06/06 00:12:46;;;;;;;4.47;2.70;;;;;;;15.92;100.00;100981.91;698327;28;1571;-58
2023/06/06 00:13:07;;;;;;;5.68;2.80;;;;;;;15.90;100.00;100976.69;699723;28;4404;-57
2023/06/06 00:13:27;;;;;;;4.43;2.70;;;;;;;15.89;100.00;100976.72;695622;28;2285;-58
2023/06/06 00:13:49;;;;;;;4.40;2.70;;;;;;;15.87;100.00;100979.38;696723;28;984;-57
2023/06/06 00:14:12;;;;;;;4.40;2.60;;;;;;;15.84;100.00;100974.19;695901;28;1090;-58
2023/06/06 00:14:32;;;;;;;5.03;2.60;;;;;;;15.81;100.00;100977.75;695044;28;1593;-58
2023/06/06 00:14:53;;;;;;;4.70;2.77;;;;;;;15.85;100.00;100975.91;697114;28;919;-58
2023/06/06 00:15:16;;;;;;;4.47;2.60;;;;;;;15.86;100.00;100979.41;697443;28;1100;-58
2023/06/06 00:15:37;;;;;;;5.38;2.75;;;;;;;15.92;100.00;100976.63;697958;28;1497;-58
2023/06/06 00:15:58;;;;;;;6.40;2.65;;;;;;;15.90;100.00;100978.44;695138;28;1369;-58
2023/06/06 00:16:18;;;;;;;5.10;2.80;;;;;;;15.89;100.00;100977.56;695525;28;4334;-58
2023/06/06 00:16:38;;;;;;;3.57;2.40;;;;;;;15.88;100.00;100981.13;695891;28;1487;-58
2023/06/06 00:17:00;;;;;;;4.07;2.67;;;;;;;15.87;100.00;100978.50;697439;28;968;-57
2023/06/06 00:17:21;;;;;;;4.22;2.88;;;;;;;15.86;100.00;100979.41;698744;28;1380;-58
2023/06/06 00:17:42;;;;;;;4.28;2.60;;;;;;;15.85;100.00;100977.69;696268;28;1506;-58
2023/06/06 00:18:03;;;;;;;5.50;2.50;;;;;;;15.80;100.00;100977.78;699380;28;1034;-58
2023/06/06 00:18:27;;;;;;;5.30;2.50;;;;;;;15.81;100.00;100982.13;701551;28;927;-57
2023/06/06 00:18:50;;;;;;;4.95;3.08;;;;;;;15.80;100.00;100972.50;699886;28;970;-58
2023/06/06 00:19:11;;;;;;;5.15;2.80;;;;;;;15.75;100.00;100982.25;698873;28;4529;-58
2023/06/06 00:19:32;;;;;;;5.00;2.75;;;;;;;15.73;100.00;100971.75;698307;28;1517;-56
2023/06/06 00:19:53;;;;;;;4.95;2.90;;;;;;;15.74;100.00;100975.22;699583;28;3619;-57
2023/06/06 00:20:13;;;;;;;5.18;2.80;;;;;;;15.79;100.00;100978.66;700684;28;970;-57
2023/06/06 00:20:35;;;;;;;4.90;2.60;;;;;;;15.83;100.00;100983.00;698818;28;1481;-58
2023/06/06 00:20:56;;;;;;;6.25;2.78;;;;;;;15.83;100.00;100977.72;698966;28;840;-57
2023/06/06 00:21:16;;;;;;;5.00;2.70;;;;;;;15.85;100.00;100980.31;700179;28;926;-58
2023/06/06 00:21:37;;;;;;;5.10;2.75;;;;;;;15.83;100.00;100975.06;699189;28;1537;-58
2023/06/06 00:21:57;;;;;;;5.30;2.90;;;;;;;15.83;100.00;100978.56;700508;28;1002;-58
2023/06/06 00:22:23;;;;;;;4.95;2.88;;;;;;;15.82;100.00;100979.50;702671;28;4543;-58
2023/06/06 00:22:43;;;;;;;4.80;2.80;;;;;;;15.82;100.00;100975.97;701033;28;1782;-58
2023/06/06 00:23:06;;;;;;;4.43;2.67;;;;;;;15.83;100.00;100977.72;702613;28;1018;-57
2023/06/06 00:23:26;;;;;;;5.03;2.70;;;;;;;15.80;100.00;100977.78;700711;28;927;-57
2023/06/06 00:23:47;;;;;;;5.30;2.65;;;;;;;15.82;100.00;100973.34;693222;28;1961;-56
2023/06/06 00:24:08;;;;;;;4.25;2.40;;;;;;;15.89;100.00;100981.97;694633;28;937;-58
2023/06/06 00:24:28;;;;;;;4.63;2.40;;;;;;;15.89;100.00;100979.34;693829;28;1540;-58
2023/06/06 00:24:49;;;;;;;7.35;3.00;;;;;;;15.89;100.00;100974.94;695095;28;994;-56
2023/06/06 00:25:10;;;;;;;6.05;2.65;;;;;;;15.88;100.00;100980.25;693573;28;4434;-57
2023/06/06 00:25:30;;;;;;;4.33;2.70;;;;;;;15.87;100.00;100976.75;695839;28;2007;-58
2023/06/06 00:25:54;;;;;;;4.67;2.90;;;;;;;15.86;100.00;100971.50;703887;28;848;-58
2023/06/06 00:26:15;;;;;;;4.57;2.75;;;;;;;15.86;100.00;100982.06;703489;28;888;-58
2023/06/06 00:26:39;;;;;;;5.88;2.97;;;;;;;15.84;100.00;100976.81;699190;28;1553;-58
2023/06/06 00:27:00;;;;;;;7.00;2.90;;;;;;;15.87;100.00;100979.38;699908;28;1043;-58
2023/06/06 00:27:20;;;;;;;5.93;2.78;;;;;;;15.88;100.00;100975.84;700696;28;851;-58
2023/06/06 00:27:41;;;;;;;4.07;2.50;;;;;;;15.85;100.00;100980.31;697530;28;1735;-58
2023/06/06 00:28:01;;;;;;;5.03;2.70;;;;;;;15.86;100.00;100982.06;698579;28;946;-57
2023/06/06 00:28:22;;;;;;;5.63;2.97;;;;;;;15.84;100.00;100976.81;700920;28;4477;-58
2023/06/06 00:28:42;;;;;;;5.50;2.90;;;;;;;15.81;100.00;100982.13;697679;28;1671;-57
2023/06/06 00:29:02;;;;;;;5.80;2.90;;;;;;;15.78;100.00;100980.44;700244;28;926;-58
2023/06/06 00:29:23;;;;;;;4.80;2.63;;;;;;;15.77;100.00;100983.06;700077;28;876;-57
2023/06/06 00:29:43;;;;;;;5.90;2.60;;;;;;;15.76;100.00;100976.09;696272;28;1566;-57
2023/06/06 00:30:04;;;;;;;6.53;3.07;;;;;;;15.77;100.00;100977.78;697457;28;1143;-58
2023/06/06 00:30:25;;;;;;;4.95;2.80;;;;;;;15.76;100.00;100979.56;698764;28;1260;-58
2023/06/06 00:30:45;;;;;;;5.03;3.03;;;;;;;15.78;100.00;100980.44;697577;28;1758;-59
2023/06/06 00:31:07;;;;;;;4.82;3.08;;;;;;;15.78;100.00;100974.28;696618;28;4381;-57
2023/06/06 00:31:28;;;;;;;4.85;2.95;;;;;;;15.82;100.00;100976.84;695095;28;1498;-58
2023/06/06 00:31:48;;;;;;;5.00;3.10;;;;;;;15.82;100.00;100986.50;695308;28;1264;-58
2023/06/06 00:32:08;;;;;;;5.03;2.73;;;;;;;15.81;100.00;100983.03;695144;28;1043;-58
2023/06/06 00:32:29;;;;;;;4.90;2.72;;;;;;;15.80;100.00;100983.91;693231;28;1553;-58
2023/06/06 00:32:49;;;;;;;5.00;2.87;;;;;;;15.79;100.00;100978.66;695837;28;976;-58
2023/06/06 00:33:10;;;;;;;6.45;3.00;;;;;;;15.80;100.00;100983.06;692071;28;988;-58
2023/06/06 00:33:30;;;;;;;5.88;2.85;;;;;;;15.83;100.00;100977.72;689926;28;1515;-58
2023/06/06 00:33:51;;;;;;;5.50;2.77;;;;;;;15.79;100.00;100976.00;695177;28;835;-58
2023/06/06 00:34:11;;;;;;;5.20;2.73;;;;;;;15.79;100.00;100978.66;694697;28;4281;-58
2023/06/06 00:34:31;;;;;;;4.40;2.60;;;;;;;15.91;100.00;100985.44;695597;28;1639;-57
2023/06/06 00:34:52;;;;;;;5.50;2.70;;;;;;;15.87;100.00;100976.75;698725;28;949;-57
2023/06/06 00:35:12;;;;;;;5.38;2.90;;;;;;;15.81;100.00;100974.22;696923;28;1107;-58
2023/06/06 00:35:33;;;;;;;5.73;2.83;;;;;;;15.80;100.00;100983.06;696591;28;1501;-58
2023/06/06 00:35:53;;;;;;;4.80;2.85;;;;;;;15.81;100.00;100982.13;698086;28;1485;-58
2023/06/06 00:36:14;;;;;;;4.73;2.70;;;;;;;15.78;100.00;100969.00;693628;28;1181;-57
2023/06/06 00:36:34;;;;;;;5.07;2.80;;;;;;;15.71;100.00;100975.31;691532;28;1216;-57
2023/06/06 00:36:54;;;;;;;5.53;3.20;;;;;;;15.72;100.00;100980.53;693293;28;1476;-58
2023/06/06 00:37:15;;;;;;;5.17;3.00;;;;;;;15.72;100.00;100972.63;692879;28;4281;-58
2023/06/06 00:37:35;;;;;;;6.55;3.03;;;;;;;15.73;100.00;100970.84;692898;28;1546;-58
2023/06/06 00:37:56;;;;;;;5.30;2.90;;;;;;;15.71;100.00;100977.94;698065;28;949;-58
2023/06/06 00:38:16;;;;;;;6.03;3.10;;;;;;;15.71;100.00;100978.78;697817;28;1162;-58
2023/06/06 00:38:36;;;;;;;5.80;3.03;;;;;;;15.72;100.00;100974.41;698725;28;968;-57
2023/06/06 00:38:57;;;;;;;4.73;3.00;;;;;;;15.73;100.00;100976.13;701010;28;963;-58
2023/06/06 00:39:18;;;;;;;5.63;3.10;;;;;;;15.76;100.00;100973.44;702857;28;1157;-58
2023/06/06 00:39:38;;;;;;;5.63;3.17;;;;;;;15.80;100.00;100977.78;697962;28;1692;-58
2023/06/06 00:39:59;;;;;;;5.53;2.80;;;;;;;15.81;100.00;100976.88;696948;28;1319;-58
2023/06/06 00:40:19;;;;;;;5.85;3.08;;;;;;;15.81;100.00;100980.38;695235;28;4536;-58
2023/06/06 00:40:40;;;;;;;5.35;2.92;;;;;;;15.77;100.00;100973.41;689518;28;1744;-58
2023/06/06 00:41:01;;;;;;;5.65;3.00;;;;;;;15.75;100.00;100976.97;689203;28;1224;-58
2023/06/06 00:41:22;;;;;;;4.60;2.83;;;;;;;15.74;100.00;100972.59;690724;28;903;-58
2023/06/06 00:41:42;;;;;;;5.37;3.00;;;;;;;15.73;100.00;100978.75;687614;28;1637;-58
2023/06/06 00:42:03;;;;;;;4.85;2.90;;;;;;;15.71;100.00;100977.94;689147;28;1172;-58
2023/06/06 00:42:23;;;;;;;4.50;2.83;;;;;;;15.70;100.00;100974.44;690233;28;5901;-58
2023/06/06 00:42:44;;;;;;;5.18;3.08;;;;;;;15.71;100.00;100975.31;690184;28;1627;-58
2023/06/06 00:43:04;;;;;;;4.70;3.00;;;;;;;15.71;100.00;100970.88;694197;28;4533;-56
2023/06/06 00:43:25;;;;;;;5.20;3.10;;;;;;;15.70;100.00;100973.56;692439;28;1020;-58
2023/06/06 00:43:46;;;;;;;5.80;3.25;;;;;;;15.67;100.00;100979.75;689397;28;1767;-58
2023/06/06 00:44:07;;;;;;;5.57;3.35;;;;;;;15.66;100.00;100976.28;692153;28;1001;-58
2023/06/06 00:44:27;;;;;;;5.47;3.10;;;;;;;15.65;100.00;100982.44;692540;28;1672;-58
2023/06/06 00:44:47;;;;;;;4.90;3.13;;;;;;;15.66;100.00;100978.06;691080;28;1571;-58
2023/06/06 00:45:08;;;;;;;4.90;3.10;;;;;;;15.68;100.00;100970.97;688673;28;1874;-59
2023/06/06 00:45:29;;;;;;;4.80;2.90;;;;;;;15.65;100.00;100974.53;688125;28;1593;-58
2023/06/06 00:45:50;;;;;;;5.55;3.00;;;;;;;15.66;100.00;100975.41;690427;28;1427;-58
2023/06/06 00:46:13;;;;;;;5.63;3.20;;;;;;;15.63;100.00;100981.59;690263;28;4384;-58
2023/06/06 00:46:33;;;;;;;5.72;3.10;;;;;;;15.64;100.00;100977.19;692761;28;1563;-58
2023/06/06 00:46:54;;;;;;;4.83;3.10;;;;;;;15.69;100.00;100971.81;693807;28;849;-58
2023/06/06 00:47:15;;;;;;;6.03;2.97;;;;;;;15.66;100.00;100975.41;697904;28;952;-58
2023/06/06 00:47:35;;;;;;;5.07;2.97;;;;;;;15.65;100.00;100969.25;693410;28;1471;-58
2023/06/06 00:47:56;;;;;;;4.20;2.75;;;;;;;15.66;100.00;100970.16;697846;28;1203;-58
2023/06/06 00:48:18;;;;;;;5.00;2.87;;;;;;;15.66;100.00;100978.91;695120;28;1180;-58
2023/06/06 00:48:40;;;;;;;5.07;2.78;;;;;;;15.65;100.00;100985.06;693720;28;1559;-58
2023/06/06 00:49:00;;;;;;;5.78;3.10;;;;;;;15.65;100.00;100973.66;697529;28;891;-58
2023/06/06 00:49:22;;;;;;;5.77;3.20;;;;;;;15.64;100.00;100971.94;695690;28;4557;-58
2023/06/06 00:49:46;;;;;;;5.93;3.20;;;;;;;15.63;100.00;100980.72;696096;28;1464;-58
2023/06/06 00:50:08;;;;;;;5.80;2.90;;;;;;;15.61;100.00;100978.13;695220;28;1211;-58
2023/06/06 00:50:30;;;;;;;5.18;3.20;;;;;;;15.56;100.00;100972.09;696559;28;1008;-57
2023/06/06 00:50:51;;;;;;;5.10;3.22;;;;;;;15.56;100.00;100968.59;695621;28;1241;-58
2023/06/06 00:51:11;;;;;;;4.68;3.10;;;;;;;15.58;100.00;100972.94;692716;28;1263;-58
2023/06/06 00:51:34;;;;;;;5.47;3.17;;;;;;;15.59;100.00;100979.06;692981;28;1562;-58
2023/06/06 00:51:55;;;;;;;5.35;3.13;;;;;;;15.58;100.00;100972.06;692834;28;1548;-58
2023/06/06 00:52:16;;;;;;;5.40;3.13;;;;;;;15.57;100.00;100979.09;690039;28;4368;-58
2023/06/06 00:52:37;;;;;;;5.70;3.20;;;;;;;15.56;100.00;100968.59;687015;28;1793;-58
2023/06/06 00:52:57;;;;;;;5.03;3.20;;;;;;;15.54;100.00;100973.88;689402;28;1463;-57
2023/06/06 00:53:20;;;;;;;4.68;2.90;;;;;;;15.52;100.00;100975.69;689635;28;1285;-58
2023/06/06 00:53:41;;;;;;;4.97;2.90;;;;;;;15.56;100.00;100977.38;688184;28;1445;-58
2023/06/06 00:54:02;;;;;;;6.18;2.90;;;;;;;15.56;100.00;100974.75;691550;28;1215;-58
2023/06/06 00:54:23;;;;;;;6.10;3.00;;;;;;;15.56;100.00;100974.75;693507;28;1189;-58
2023/06/06 00:54:44;;;;;;;5.35;2.97;;;;;;;15.52;100.00;100970.44;694571;28;1507;-58
2023/06/06 00:55:05;;;;;;;5.57;3.40;;;;;;;15.49;100.00;100973.09;694643;28;4464;-56
2023/06/06 00:55:28;;;;;;;5.85;3.28;;;;;;;15.49;100.00;100970.47;696946;28;1109;-58
2023/06/06 00:55:49;;;;;;;5.18;3.08;;;;;;;15.54;100.00;100965.97;695064;28;1177;-57
2023/06/06 00:56:13;;;;;;;4.47;3.07;;;;;;;15.65;100.00;100973.66;692502;28;1230;-59
2023/06/06 00:56:37;;;;;;;5.53;3.17;;;;;;;15.59;100.00;100973.78;689835;28;1516;-58
2023/06/06 00:56:57;;;;;;;5.78;2.95;;;;;;;15.65;100.00;100966.63;693778;28;1498;-58
2023/06/06 00:57:18;;;;;;;5.47;2.83;;;;;;;15.65;100.00;100971.88;692821;28;1579;-58
2023/06/06 00:57:38;;;;;;;4.57;2.83;;;;;;;15.63;100.00;100970.19;690360;28;1531;-58
2023/06/06 00:58:00;;;;;;;5.07;3.07;;;;;;;15.59;100.00;100966.75;693506;28;968;-58
2023/06/06 00:58:20;;;;;;;5.32;2.80;;;;;;;15.58;100.00;100967.66;699640;28;4403;-58
2023/06/06 00:58:42;;;;;;;5.32;3.30;;;;;;;15.56;100.00;100969.47;697460;28;1573;-58
2023/06/06 00:59:05;;;;;;;4.90;3.13;;;;;;;15.58;100.00;100972.06;691949;28;1367;-58
2023/06/06 00:59:28;;;;;;;5.38;3.10;;;;;;;15.57;100.00;100972.97;692585;28;1500;-58
2023/06/06 00:59:49;;;;;;;5.20;3.10;;;;;;;15.56;100.00;100977.38;694605;28;1746;-58
2023/06/06 01:00:11;;;;;;;5.10;3.10;;;;;;;15.54;100.00;100978.31;691834;28;1424;-58
2023/06/06 01:00:32;;;;;;;5.57;3.30;;;;;;;15.57;100.00;100971.19;689499;28;1546;-58
2023/06/06 01:00:52;;;;;;;5.40;3.17;;;;;;;15.61;100.00;100970.22;694864;28;1301;-57
2023/06/06 01:01:13;;;;;;;4.60;3.10;;;;;;;15.69;100.00;100969.19;697515;28;4353;-58
2023/06/06 01:01:36;;;;;;;5.47;3.03;;;;;;;15.68;100.00;100970.09;697174;28;1495;-58
2023/06/06 01:01:58;;;;;;;6.82;3.25;;;;;;;15.63;100.00;100970.19;695570;28;2046;-58
2023/06/06 01:02:20;;;;;;;6.10;3.38;;;;;;;15.60;100.00;100968.50;698540;28;1038;-57
2023/06/06 01:02:43;;;;;;;4.85;3.10;;;;;;;15.59;100.00;100974.66;692096;28;1466;-58
2023/06/06 01:03:09;;;;;;;6.28;3.38;;;;;;;15.55;100.00;100973.00;693710;28;1403;-58
2023/06/06 01:03:31;;;;;;;5.47;3.13;;;;;;;15.54;100.00;100970.41;691196;28;1506;-58
2023/06/06 01:03:56;;;;;;;6.23;3.10;;;;;;;15.51;100.00;100976.59;697180;28;920;-58
2023/06/06 01:04:20;;;;;;;5.53;3.15;;;;;;;15.47;100.00;100965.22;693804;28;4517;-58
2023/06/06 01:04:41;;;;;;;5.03;3.08;;;;;;;15.51;100.00;100971.31;692489;28;1459;-58
2023/06/06 01:05:02;;;;;;;6.28;3.15;;;;;;;15.50;100.00;100973.06;691775;28;1371;-58
2023/06/06 01:05:23;;;;;;;5.43;3.20;;;;;;;15.51;100.00;100968.69;692555;28;911;-58
2023/06/06 01:05:43;;;;;;;4.97;3.20;;;;;;;15.50;100.00;100972.22;690409;28;2720;-57
2023/06/06 01:06:05;;;;;;;6.47;3.30;;;;;;;15.54;100.00;100973.88;690430;28;1133;-57
2023/06/06 01:06:26;;;;;;;5.93;3.20;;;;;;;15.55;100.00;100967.72;692840;28;975;-57
2023/06/06 01:06:46;;;;;;;6.03;3.45;;;;;;;15.58;100.00;100967.66;691083;28;1524;-58
2023/06/06 01:07:12;;;;;;;6.18;3.55;;;;;;;15.57;100.00;100965.91;690436;28;4553;-58
2023/06/06 01:07:35;;;;;;;4.82;3.00;;;;;;;15.57;100.00;100967.69;690411;28;1888;-59
2023/06/06 01:07:56;;;;;;;5.45;3.30;;;;;;;15.55;100.00;100967.72;695039;28;885;-59
2023/06/06 01:08:20;;;;;;;5.90;3.20;;;;;;;15.59;100.00;100964.13;698650;28;840;-59
2023/06/06 01:08:40;;;;;;;5.40;3.10;;;;;;;15.63;100.00;100963.16;698428;28;991;-58
2023/06/06 01:09:04;;;;;;;6.00;3.30;;;;;;;15.66;100.00;100968.38;699410;28;987;-58
2023/06/06 01:09:25;;;;;;;6.05;3.60;;;;;;;15.70;100.00;100971.81;701179;28;1308;-58
2023/06/06 01:09:46;;;;;;;6.13;3.20;;;;;;;15.59;100.00;100961.50;701050;28;1506;-58
2023/06/06 01:10:08;;;;;;;6.00;3.00;;;;;;;15.56;100.00;100964.19;701731;28;4559;-58
2023/06/06 01:10:30;;;;;;;6.25;3.10;;;;;;;15.54;100.00;100960.72;702911;28;885;-58
2023/06/06 01:10:55;;;;;;;5.50;3.20;;;;;;;15.53;100.00;100966.88;702756;28;1256;-58
2023/06/06 01:11:32;;;;;;;5.00;3.30;;;;;;;15.51;100.00;100971.31;702570;28;927;-58
2023/06/06 01:12:09;;;;;;;6.57;2.95;;;;;;;15.53;100.00;100973.91;703763;28;1114;-58
2023/06/06 01:13:03;;;;;;;5.68;3.10;;;;;;;15.56;100.00;100969.47;696543;28;1593;-58
2023/06/06 01:13:36;;;;;;;5.60;3.28;;;;;;;15.46;100.00;100971.41;694638;28;4285;-58
2023/06/06 01:14:35;;;;;;;4.85;3.03;;;;;;;15.43;100.00;100978.50;694476;28;1039;-58
2023/06/06 01:15:09;;;;;;;5.85;3.47;;;;;;;15.42;100.00;100968.88;697907;28;1238;-58
2023/06/06 01:15:38;;;;;;;5.00;3.33;;;;;;;15.40;100.00;100962.78;697439;28;1652;-59
2023/06/06 01:16:05;;;;;;;5.80;3.20;;;;;;;15.35;100.00;100969.88;699017;28;3292;-58
2023/06/06 01:16:26;;;;;;;5.75;3.50;;;;;;;15.39;100.00;100971.56;699598;28;4779;-58
2023/06/06 01:16:52;;;;;;;8.18;3.60;;;;;;;15.42;100.00;100977.63;698379;28;1458;-58
2023/06/06 01:17:17;;;;;;;7.07;3.45;;;;;;;15.49;100.00;100973.09;698538;28;1103;-58
2023/06/06 01:17:41;;;;;;;6.53;3.78;;;;;;;15.46;100.00;100966.13;699331;28;1600;-58
2023/06/06 01:18:04;;;;;;;5.22;3.10;;;;;;;15.44;100.00;100975.00;701441;28;1148;-57
2023/06/06 01:18:25;;;;;;;5.90;3.20;;;;;;;15.44;100.00;100969.72;700734;28;988;-58
2023/06/06 01:18:48;;;;;;;5.85;3.20;;;;;;;15.42;100.00;100971.50;697418;28;1390;-58
2023/06/06 01:19:16;;;;;;;6.72;3.55;;;;;;;15.38;100.00;100970.72;699348;28;4409;-58
2023/06/06 01:19:41;;;;;;;6.50;3.33;;;;;;;15.32;100.00;100966.41;693797;28;1626;-58
2023/06/06 01:20:04;;;;;;;5.28;3.38;;;;;;;15.36;100.00;100967.22;693639;28;1457;-58
2023/06/06 01:20:25;;;;;;;5.35;3.28;;;;;;;15.39;100.00;100971.56;697321;28;964;-58
2023/06/06 01:20:47;;;;;;;6.35;3.35;;;;;;;15.38;100.00;100965.44;694091;28;1606;-58
2023/06/06 01:21:08;;;;;;;6.20;3.30;;;;;;;15.35;100.00;100970.75;694979;28;1390;-58
2023/06/06 01:21:37;;;;;;;6.13;3.50;;;;;;;15.37;100.00;100974.22;695964;28;1122;-58
2023/06/06 01:21:59;;;;;;;5.93;3.50;;;;;;;15.37;100.00;100970.72;698506;28;1539;-58
2023/06/06 01:22:22;;;;;;;5.45;3.40;;;;;;;15.32;100.00;100966.41;700893;28;4410;-58
2023/06/06 01:22:43;;;;;;;6.03;3.42;;;;;;;15.31;100.00;100969.97;697753;28;1518;-58
2023/06/06 01:23:04;;;;;;;5.88;3.72;;;;;;;15.32;100.00;100965.53;699490;28;2226;-58
2023/06/06 01:23:27;;;;;;;5.68;3.63;;;;;;;15.37;100.00;100978.63;698210;28;1074;-59
2023/06/06 01:23:48;;;;;;;6.00;3.58;;;;;;;15.27;100.00;100976.19;695412;28;1392;-58
2023/06/06 01:24:08;;;;;;;5.90;3.20;;;;;;;15.32;100.00;100968.19;697316;28;973;-58
2023/06/06 01:24:29;;;;;;;6.45;3.63;;;;;;;15.32;100.00;100973.44;697378;28;1380;-59
2023/06/06 01:24:54;;;;;;;5.75;3.47;;;;;;;15.32;100.00;100971.66;696375;28;1435;-58
2023/06/06 01:25:19;;;;;;;6.20;3.40;;;;;;;15.38;100.00;100975.09;695631;28;4324;-58
2023/06/06 01:25:48;;;;;;;6.90;3.50;;;;;;;15.37;100.00;100971.59;694859;28;2000;-58
2023/06/06 01:26:10;;;;;;;6.07;3.40;;;;;;;15.35;100.00;100969.88;697092;28;1362;-58
2023/06/06 01:26:31;;;;;;;6.63;3.50;;;;;;;15.35;100.00;100975.16;695525;28;1506;-58
2023/06/06 01:26:51;;;;;;;7.53;3.40;;;;;;;15.32;100.00;100973.44;695450;28;1169;-58
2023/06/06 01:27:12;;;;;;;8.05;3.63;;;;;;;15.31;100.00;100969.97;696873;28;1038;-58
2023/06/06 01:27:35;;;;;;;6.47;3.50;;;;;;;15.31;100.00;100969.06;692522;28;1798;-59
2023/06/06 01:27:56;;;;;;;5.45;3.40;;;;;;;15.39;100.00;100968.94;695932;28;935;-57
2023/06/06 01:28:20;;;;;;;7.43;3.40;;;;;;;15.44;100.00;100965.31;694928;28;4535;-58
2023/06/06 01:28:41;;;;;;;7.20;3.42;;;;;;;15.44;100.00;100969.72;691626;28;1552;-58
2023/06/06 01:29:02;;;;;;;5.50;3.40;;;;;;;15.42;100.00;100972.34;694115;28;890;-58
2023/06/06 01:29:24;;;;;;;5.30;3.25;;;;;;;15.32;100.00;100965.53;693363;28;1430;-58
2023/06/06 01:29:47;;;;;;;5.88;3.20;;;;;;;15.30;100.00;100962.94;690742;28;1591;-58
2023/06/06 01:30:08;;;;;;;5.47;3.20;;;;;;;15.32;100.00;100961.13;691616;28;1412;-58
2023/06/06 01:30:29;;;;;;;5.93;3.30;;;;;;;15.29;100.00;100971.75;689641;28;1568;-58
2023/06/06 01:30:49;;;;;;;4.68;3.20;;;;;;;15.33;100.00;100967.28;689049;28;1543;-58
2023/06/06 01:31:18;;;;;;;6.28;3.70;;;;;;;15.44;100.00;100969.72;689145;28;4634;-57
2023/06/06 01:31:49;;;;;;;6.25;3.28;;;;;;;15.40;100.00;100968.91;690128;28;1694;-58
2023/06/06 01:32:15;;;;;;;5.95;3.65;;;;;;;15.36;100.00;100971.63;694811;28;1083;-58
2023/06/06 01:32:54;;;;;;;5.10;3.63;;;;;;;15.30;100.00;100968.22;692530;28;1621;-58
2023/06/06 01:33:46;;;;;;;6.00;3.40;;;;;;;15.33;100.00;100967.28;697197;28;930;-58
2023/06/06 01:34:20;;;;;;;5.97;3.17;;;;;;;15.27;100.00;100975.28;698018;28;4706;-58
2023/06/06 01:34:58;;;;;;;6.22;3.40;;;;;;;15.21;100.00;100968.38;700216;28;1660;-58
2023/06/06 01:35:47;;;;;;;5.22;3.13;;;;;;;15.14;100.00;100965.00;702319;28;832;-58
2023/06/06 01:36:28;;;;;;;6.97;3.50;;;;;;;15.10;100.00;100973.00;699550;28;1371;-58
2023/06/06 01:36:59;;;;;;;9.63;3.97;;;;;;;15.15;100.00;100972.00;698336;28;1467;-58
2023/06/06 01:37:29;;;;;;;5.68;3.22;;;;;;;15.08;100.00;100972.16;701171;28;5387;-58
2023/06/06 01:37:59;;;;;;;5.60;3.40;;;;;;;15.07;100.00;100973.91;699695;28;1532;-58
2023/06/06 01:38:24;;;;;;;5.00;3.40;;;;;;;15.07;100.00;100971.28;700571;28;997;-58
2023/06/06 01:38:59;;;;;;;5.68;3.50;;;;;;;15.07;100.00;100976.53;698254;28;1490;-58
2023/06/06 01:39:22;;;;;;;5.88;3.40;;;;;;;15.03;100.00;100968.75;700985;28;1284;-58
2023/06/06 01:39:47;;;;;;;5.82;3.20;;;;;;;14.99;100.00;100967.91;695903;28;1459;-58
2023/06/06 01:40:11;;;;;;;5.70;3.40;;;;;;;15.00;100.00;100979.34;696942;28;4325;-58
2023/06/06 01:40:33;;;;;;;6.82;3.67;;;;;;;15.00;100.00;100977.56;693519;28;1455;-58
2023/06/06 01:40:57;;;;;;;6.18;3.50;;;;;;;14.97;100.00;100970.56;695158;28;1360;-58
2023/06/06 01:41:19;;;;;;;7.30;3.40;;;;;;;15.02;100.00;100978.38;697379;28;923;-58
2023/06/06 01:41:45;;;;;;;6.07;3.70;;;;;;;15.02;100.00;100977.53;694309;28;1653;-58
2023/06/06 01:42:06;;;;;;;6.25;3.55;;;;;;;15.05;100.00;100978.34;698094;28;1400;-58
2023/06/06 01:42:28;;;;;;;5.20;3.40;;;;;;;15.13;100.00;100973.81;697197;28;5310;-58
2023/06/06 01:42:50;;;;;;;5.78;3.88;;;;;;;15.10;100.00;100970.34;693530;28;1564;-58
2023/06/06 01:43:11;;;;;;;6.22;3.80;;;;;;;15.06;100.00;100974.78;695861;28;4421;-57
2023/06/06 01:43:34;;;;;;;6.18;3.58;;;;;;;15.09;100.00;100976.50;692504;28;1567;-58
2023/06/06 01:43:56;;;;;;;6.40;3.53;;;;;;;15.09;100.00;100979.16;689895;28;2111;-58
2023/06/06 01:44:17;;;;;;;6.43;3.55;;;;;;;15.08;100.00;100975.66;688619;28;1469;-58
2023/06/06 01:44:38;;;;;;;7.50;4.40;;;;;;;15.06;100.00;100979.22;688197;28;1468;-57
2023/06/06 01:45:00;;;;;;;6.15;4.00;;;;;;;15.07;100.00;100975.69;692348;28;1376;-58
2023/06/06 01:45:25;;;;;;;6.05;3.53;;;;;;;15.05;100.00;100977.47;693597;28;936;-58
2023/06/06 01:45:46;;;;;;;5.68;3.53;;;;;;;15.05;100.00;100972.19;692480;28;2202;-59
2023/06/06 01:46:07;;;;;;;5.88;3.50;;;;;;;15.02;100.00;100978.38;693393;28;4851;-58
2023/06/06 01:46:30;;;;;;;6.65;3.90;;;;;;;15.03;100.00;100976.63;692252;28;1361;-58
2023/06/06 01:46:52;;;;;;;6.53;3.85;;;;;;;15.06;100.00;100972.16;692778;28;1686;-58
2023/06/06 01:47:15;;;;;;;6.47;3.80;;;;;;;15.06;100.00;100974.78;696871;28;1223;-58